Nueces — WDC2624 — position and weather

sailwx.info

Track history (hours):
 
Tides and Currents Weather Stations Pressure Air Temp Water Temp Dewpoint Dewpoint Depression Visibility Wind Speed Wind Dir Waves Ship Positions

Nueces

Owner: Kirby Inland Marine LP, Houston, TX. More information available from US FCC via Universal Licensing System and Coast Guard Vessel Documentation Center.

Last reported at 2018-Jun-23 23:57 UTC. Time now 2018-Jun-24 15:00 UTC.
Position N 29°18' W 094°53'.

Length 19 m; draft 3 m.

Type: . MMSI: 366995720.

Date/timePositionNaut miles runAvg speedWind from/ knotsBaromVisibWave heightAir tempDewpointWater temp
2018-Jun-23 23:57N 29°18' W 094°53'3 5.5
2018-Jun-23 23:29N 29°17' W 094°56'4 6.5
2018-Jun-23 22:53N 29°16' W 094°60'2 6.5
2018-Jun-23 22:30N 29°14' W 095°02'3 6.0
2018-Jun-23 22:00N 29°12' W 095°04'3 6.1
2018-Jun-23 21:30N 29°10' W 095°07'3 5.8
2018-Jun-23 21:00N 29°08' W 095°10'1 1.1
2018-Jun-23 20:30N 29°09' W 095°09'3 5.0
2018-Jun-23 20:00N 29°10' W 095°07'2 5.0
2018-Jun-23 19:30N 29°11' W 095°05'2 3.1
2018-Jun-23 19:00N 29°12' W 095°03'1 1.0
2018-Jun-23 18:30N 29°13' W 095°02'0 0.0
2018-Jun-23 18:00N 29°13' W 095°02'0 0.1
2018-Jun-23 17:30N 29°13' W 095°02'3 5.3
2018-Jun-23 17:00N 29°15' W 095°01'3 6.5
2018-Jun-23 16:30N 29°17' W 094°58'3 6.2
2018-Jun-23 16:00N 29°17' W 094°54'2 3.3
2018-Jun-23 15:30N 29°18' W 094°53'2 4.5
2018-Jun-23 15:00N 29°20' W 094°51'3 5.4
2018-Jun-23 14:30N 29°22' W 094°49'3 6.8
2018-Jun-23 14:00N 29°23' W 094°52'2 4.2
2018-Jun-23 13:30N 29°22' W 094°54'0 0.0
2018-Jun-23 13:00N 29°22' W 094°54'0 0.0
2018-Jun-23 12:29N 29°22' W 094°54'0 0.0
2018-Jun-23 11:59N 29°22' W 094°54'0 0.0
2018-Jun-23 11:29N 29°22' W 094°54'0 0.0
2018-Jun-23 10:59N 29°22' W 094°54'0 0.0
2018-Jun-23 10:29N 29°22' W 094°54'0 0.0
2018-Jun-23 09:59N 29°22' W 094°54'0 0.0
2018-Jun-23 09:26N 29°22' W 094°54'0 0.0
2018-Jun-23 08:59N 29°22' W 094°54'0 0.0
2018-Jun-23 08:29N 29°22' W 094°54'0 0.0
2018-Jun-23 07:59N 29°22' W 094°54'0 0.0
2018-Jun-23 07:29N 29°22' W 094°54'0 0.0
2018-Jun-23 06:14N 29°22' W 094°54'0 0.0
2018-Jun-23 05:59N 29°22' W 094°54'0 0.0
2018-Jun-23 05:29N 29°22' W 094°54'0 0.0
2018-Jun-23 04:59N 29°22' W 094°54'0 0.0
2018-Jun-23 04:26N 29°22' W 094°54'0 0.0
2018-Jun-23 03:59N 29°22' W 094°54'0 0.0
2018-Jun-23 03:23N 29°22' W 094°54'0 0.0
2018-Jun-23 02:59N 29°22' W 094°54'0 0.0
2018-Jun-23 02:30N 29°22' W 094°54'1 1.1
2018-Jun-23 01:59N 29°22' W 094°54'1 2.7
2018-Jun-23 01:29N 29°23' W 094°53'3 6.3
2018-Jun-23 01:00N 29°22' W 094°50'2 4.8
2018-Jun-23 00:30N 29°24' W 094°49'4 7.8
2018-Jun-22 23:56N 29°29' W 094°51'3 7.7
2018-Jun-22 23:29N 29°32' W 094°53'4 6.9
2018-Jun-22 22:57N 29°35' W 094°56'4 6.7
2018-Jun-22 22:21N 29°38' W 094°58'2 6.8
2018-Jun-22 22:00N 29°40' W 094°59'8 0.9
2018-Jun-22 13:31N 29°45' W 095°06'0 4.8
2018-Jun-22 13:30N 29°45' W 095°06'1 1.3
2018-Jun-22 12:52N 29°46' W 095°06'0 0.1
2018-Jun-22 11:50N 29°46' W 095°06'0 0.0
2018-Jun-22 08:00N 29°46' W 095°06'1 1.1
2018-Jun-22 07:13N 29°46' W 095°07'0 0.5
2018-Jun-22 06:59N 29°46' W 095°06'1 1.3
2018-Jun-22 06:03N 29°45' W 095°06'0 0.7
2018-Jun-22 05:47N 29°45' W 095°06'0 0.7
2018-Jun-22 05:24N 29°45' W 095°06'0 0.1
2018-Jun-22 04:57N 29°45' W 095°06'1 2.8
2018-Jun-22 04:30N 29°46' W 095°05'2 3.4
2018-Jun-22 03:59N 29°47' W 095°04'1 2.0
2018-Jun-22 03:30N 29°47' W 095°06'0 0.1
2018-Jun-22 03:00N 29°47' W 095°05'1 0.6
2018-Jun-22 01:20N 29°47' W 095°04'2 5.3
2018-Jun-22 00:54N 29°45' W 095°04'1 0.7
2018-Jun-21 23:01N 29°46' W 095°05'1 3.7
2018-Jun-21 22:38N 29°47' W 095°04'0 1.7
2018-Jun-21 22:30N 29°47' W 095°04'0 0.0
2018-Jun-21 21:50N 29°47' W 095°04'0 0.0
2018-Jun-20 09:28N 29°48' W 095°04'3 0.3
2018-Jun-20 01:25N 29°45' W 095°06'0 0.0
2018-Jun-19 23:46N 29°45' W 095°06'5 0.7
2018-Jun-19 16:10N 29°42' W 095°01'2 5.7
2018-Jun-19 15:49N 29°41' W 094°59'2 5.8
2018-Jun-19 15:29N 29°40' W 094°58'3 5.6
2018-Jun-19 14:58N 29°37' W 094°57'3 5.7
2018-Jun-19 14:30N 29°37' W 095°00'1 1.3
2018-Jun-19 13:49N 29°37' W 095°01'0 0.0
2018-Jun-19 13:28N 29°37' W 095°01'0 0.0
2018-Jun-19 12:58N 29°37' W 095°01'0 0.0
2018-Jun-19 12:28N 29°37' W 095°01'0 0.0
2018-Jun-19 11:49N 29°37' W 095°01'0 0.0
2018-Jun-19 11:16N 29°37' W 095°01'0 0.0
2018-Jun-19 10:58N 29°37' W 095°01'0 0.0
2018-Jun-19 10:25N 29°37' W 095°01'0 0.0
2018-Jun-19 09:49N 29°37' W 095°01'0 0.0
2018-Jun-19 09:13N 29°37' W 095°01'0 0.0
2018-Jun-19 08:49N 29°37' W 095°01'0 0.0
2018-Jun-19 07:55N 29°37' W 095°01'0 0.0
2018-Jun-19 06:55N 29°37' W 095°01'0 0.0
2018-Jun-19 06:16N 29°37' W 095°01'0 0.0
2018-Jun-19 05:28N 29°37' W 095°01'0 0.0
2018-Jun-19 04:45N 29°37' W 095°01'0 0.0
2018-Jun-19 04:09N 29°37' W 095°01'0 0.0
2018-Jun-19 03:58N 29°37' W 095°01'0 0.0
2018-Jun-19 03:27N 29°37' W 095°01'0 0.0
2018-Jun-19 03:00N 29°37' W 095°01'0 0.1
2018-Jun-19 02:29N 29°37' W 095°02'0 0.0
2018-Jun-19 01:59N 29°37' W 095°02'0 0.0
2018-Jun-19 01:30N 29°37' W 095°02'0 0.0
2018-Jun-19 00:56N 29°37' W 095°02'0 0.0
2018-Jun-19 00:30N 29°37' W 095°02'0 0.0
2018-Jun-19 00:00N 29°37' W 095°02'0 0.0
2018-Jun-18 23:30N 29°37' W 095°02'0 0.0
2018-Jun-18 23:00N 29°37' W 095°02'0 0.0
2018-Jun-18 22:30N 29°37' W 095°02'0 0.0
2018-Jun-18 22:00N 29°37' W 095°02'0 0.0
2018-Jun-18 21:30N 29°37' W 095°02'0 0.0
2018-Jun-18 21:00N 29°37' W 095°02'0 0.0
2018-Jun-18 20:29N 29°37' W 095°02'0 0.0
2018-Jun-18 20:00N 29°37' W 095°02'0 0.0
2018-Jun-18 19:29N 29°37' W 095°02'0 0.0
2018-Jun-18 19:00N 29°37' W 095°02'0 0.0
2018-Jun-18 18:30N 29°37' W 095°02'0 0.0
2018-Jun-18 18:00N 29°37' W 095°02'0 0.0
2018-Jun-18 17:29N 29°37' W 095°02'0 0.0
2018-Jun-18 17:00N 29°37' W 095°02'0 0.0
2018-Jun-18 16:30N 29°37' W 095°02'0 0.0
2018-Jun-18 15:58N 29°37' W 095°02'1 3.2
2018-Jun-18 15:30N 29°37' W 094°60'2 4.1
2018-Jun-18 14:55N 29°39' W 094°58'3 6.9
2018-Jun-18 14:30N 29°41' W 094°59'2 0.1
2018-Jun-17 13:28N 29°42' W 095°01'3 6.3
2018-Jun-17 12:58N 29°40' W 094°59'3 6.1
2018-Jun-17 12:25N 29°37' W 094°57'2 6.0
2018-Jun-17 12:01N 29°37' W 095°00'1 2.1
2018-Jun-17 11:30N 29°37' W 095°02'0 0.0
2018-Jun-17 11:01N 29°37' W 095°02'0 0.0
2018-Jun-17 10:17N 29°37' W 095°02'0 0.0
2018-Jun-17 09:23N 29°37' W 095°02'0 0.0
2018-Jun-17 08:53N 29°37' W 095°02'0 0.0
2018-Jun-17 03:53N 29°37' W 095°02'0 0.0
2018-Jun-17 03:29N 29°37' W 095°02'0 0.0
2018-Jun-17 03:00N 29°37' W 095°02'0 0.0
2018-Jun-17 02:30N 29°37' W 095°02'0 0.0
2018-Jun-17 01:58N 29°37' W 095°02'0 0.0
2018-Jun-17 01:30N 29°37' W 095°02'0 0.0
2018-Jun-17 01:00N 29°37' W 095°02'1 2.5
2018-Jun-17 00:30N 29°37' W 095°00'2 4.6
2018-Jun-17 00:00N 29°38' W 094°58'4 7.2
2018-Jun-16 23:30N 29°41' W 094°59'  
2018-Jun-14 07:13N 29°47' W 095°04'0 0.6
2018-Jun-14 06:59N 29°47' W 095°04'0 0.0
2018-Jun-14 06:30N 29°47' W 095°04'1 2.0
2018-Jun-14 05:51N 29°46' W 095°05'2 5.2
2018-Jun-14 05:26N 29°44' W 095°03'3 5.1
2018-Jun-14 04:50N 29°42' W 095°01'2 5.6
2018-Jun-14 04:27N 29°41' W 094°59'3 6.1
2018-Jun-14 03:54N 29°38' W 094°58'2 4.1
2018-Jun-14 03:30N 29°37' W 094°59'2 3.6
2018-Jun-14 03:00N 29°37' W 095°01'0 0.5
2018-Jun-14 02:30N 29°37' W 095°01'0 0.0
2018-Jun-14 01:08N 29°37' W 095°02'0 0.3
2018-Jun-14 01:00N 29°37' W 095°01'0 0.3
2018-Jun-14 00:28N 29°37' W 095°02'  
Track history (hours):
 
Tides and Currents Weather Stations Pressure Air Temp Water Temp Dewpoint Dewpoint Depression Visibility Wind Speed Wind Dir Waves Ship Positions

Nueces

Owner: Kirby Inland Marine LP, Houston, TX. More information available from US FCC via Universal Licensing System and Coast Guard Vessel Documentation Center.

Last reported at 2018-Jun-23 23:57 UTC. Time now 2018-Jun-24 15:00 UTC.
Position N 29°18' W 094°53'.

Length 19 m; draft 3 m.

Type: . MMSI: 366995720.

Date/timePositionNaut miles runAvg speedWind from/ knotsBaromVisibWave heightAir tempDewpointWater temp
2018-Jun-23 23:57N 29°18' W 094°53'3 5.5
2018-Jun-23 23:29N 29°17' W 094°56'4 6.5
2018-Jun-23 22:53N 29°16' W 094°60'2 6.5
2018-Jun-23 22:30N 29°14' W 095°02'3 6.0
2018-Jun-23 22:00N 29°12' W 095°04'3 6.1
2018-Jun-23 21:30N 29°10' W 095°07'3 5.8
2018-Jun-23 21:00N 29°08' W 095°10'1 1.1
2018-Jun-23 20:30N 29°09' W 095°09'3 5.0
2018-Jun-23 20:00N 29°10' W 095°07'2 5.0
2018-Jun-23 19:30N 29°11' W 095°05'2 3.1
2018-Jun-23 19:00N 29°12' W 095°03'1 1.0
2018-Jun-23 18:30N 29°13' W 095°02'0 0.0
2018-Jun-23 18:00N 29°13' W 095°02'0 0.1
2018-Jun-23 17:30N 29°13' W 095°02'3 5.3
2018-Jun-23 17:00N 29°15' W 095°01'3 6.5
2018-Jun-23 16:30N 29°17' W 094°58'3 6.2
2018-Jun-23 16:00N 29°17' W 094°54'2 3.3
2018-Jun-23 15:30N 29°18' W 094°53'2 4.5
2018-Jun-23 15:00N 29°20' W 094°51'3 5.4
2018-Jun-23 14:30N 29°22' W 094°49'3 6.8
2018-Jun-23 14:00N 29°23' W 094°52'2 4.2
2018-Jun-23 13:30N 29°22' W 094°54'0 0.0
2018-Jun-23 13:00N 29°22' W 094°54'0 0.0
2018-Jun-23 12:29N 29°22' W 094°54'0 0.0
2018-Jun-23 11:59N 29°22' W 094°54'0 0.0
2018-Jun-23 11:29N 29°22' W 094°54'0 0.0
2018-Jun-23 10:59N 29°22' W 094°54'0 0.0
2018-Jun-23 10:29N 29°22' W 094°54'0 0.0
2018-Jun-23 09:59N 29°22' W 094°54'0 0.0
2018-Jun-23 09:26N 29°22' W 094°54'0 0.0
2018-Jun-23 08:59N 29°22' W 094°54'0 0.0
2018-Jun-23 08:29N 29°22' W 094°54'0 0.0
2018-Jun-23 07:59N 29°22' W 094°54'0 0.0
2018-Jun-23 07:29N 29°22' W 094°54'0 0.0
2018-Jun-23 06:14N 29°22' W 094°54'0 0.0
2018-Jun-23 05:59N 29°22' W 094°54'0 0.0
2018-Jun-23 05:29N 29°22' W 094°54'0 0.0
2018-Jun-23 04:59N 29°22' W 094°54'0 0.0
2018-Jun-23 04:26N 29°22' W 094°54'0 0.0
2018-Jun-23 03:59N 29°22' W 094°54'0 0.0
2018-Jun-23 03:23N 29°22' W 094°54'0 0.0
2018-Jun-23 02:59N 29°22' W 094°54'0 0.0
2018-Jun-23 02:30N 29°22' W 094°54'1 1.1
2018-Jun-23 01:59N 29°22' W 094°54'1 2.7
2018-Jun-23 01:29N 29°23' W 094°53'3 6.3
2018-Jun-23 01:00N 29°22' W 094°50'2 4.8
2018-Jun-23 00:30N 29°24' W 094°49'4 7.8
2018-Jun-22 23:56N 29°29' W 094°51'3 7.7
2018-Jun-22 23:29N 29°32' W 094°53'4 6.9
2018-Jun-22 22:57N 29°35' W 094°56'4 6.7
2018-Jun-22 22:21N 29°38' W 094°58'2 6.8
2018-Jun-22 22:00N 29°40' W 094°59'8 0.9
2018-Jun-22 13:31N 29°45' W 095°06'0 4.8
2018-Jun-22 13:30N 29°45' W 095°06'1 1.3
2018-Jun-22 12:52N 29°46' W 095°06'0 0.1
2018-Jun-22 11:50N 29°46' W 095°06'0 0.0
2018-Jun-22 08:00N 29°46' W 095°06'1 1.1
2018-Jun-22 07:13N 29°46' W 095°07'0 0.5
2018-Jun-22 06:59N 29°46' W 095°06'1 1.3
2018-Jun-22 06:03N 29°45' W 095°06'0 0.7
2018-Jun-22 05:47N 29°45' W 095°06'0 0.7
2018-Jun-22 05:24N 29°45' W 095°06'0 0.1
2018-Jun-22 04:57N 29°45' W 095°06'1 2.8
2018-Jun-22 04:30N 29°46' W 095°05'2 3.4
2018-Jun-22 03:59N 29°47' W 095°04'1 2.0
2018-Jun-22 03:30N 29°47' W 095°06'0 0.1
2018-Jun-22 03:00N 29°47' W 095°05'1 0.6
2018-Jun-22 01:20N 29°47' W 095°04'2 5.3
2018-Jun-22 00:54N 29°45' W 095°04'1 0.7
2018-Jun-21 23:01N 29°46' W 095°05'1 3.7
2018-Jun-21 22:38N 29°47' W 095°04'0 1.7
2018-Jun-21 22:30N 29°47' W 095°04'0 0.0
2018-Jun-21 21:50N 29°47' W 095°04'0 0.0
2018-Jun-20 09:28N 29°48' W 095°04'3 0.3
2018-Jun-20 01:25N 29°45' W 095°06'0 0.0
2018-Jun-19 23:46N 29°45' W 095°06'5 0.7
2018-Jun-19 16:10N 29°42' W 095°01'2 5.7
2018-Jun-19 15:49N 29°41' W 094°59'2 5.8
2018-Jun-19 15:29N 29°40' W 094°58'3 5.6
2018-Jun-19 14:58N 29°37' W 094°57'3 5.7
2018-Jun-19 14:30N 29°37' W 095°00'1 1.3
2018-Jun-19 13:49N 29°37' W 095°01'0 0.0
2018-Jun-19 13:28N 29°37' W 095°01'0 0.0
2018-Jun-19 12:58N 29°37' W 095°01'0 0.0
2018-Jun-19 12:28N 29°37' W 095°01'0 0.0
2018-Jun-19 11:49N 29°37' W 095°01'0 0.0
2018-Jun-19 11:16N 29°37' W 095°01'0 0.0
2018-Jun-19 10:58N 29°37' W 095°01'0 0.0
2018-Jun-19 10:25N 29°37' W 095°01'0 0.0
2018-Jun-19 09:49N 29°37' W 095°01'0 0.0
2018-Jun-19 09:13N 29°37' W 095°01'0 0.0
2018-Jun-19 08:49N 29°37' W 095°01'0 0.0
2018-Jun-19 07:55N 29°37' W 095°01'0 0.0
2018-Jun-19 06:55N 29°37' W 095°01'0 0.0
2018-Jun-19 06:16N 29°37' W 095°01'0 0.0
2018-Jun-19 05:28N 29°37' W 095°01'0 0.0
2018-Jun-19 04:45N 29°37' W 095°01'0 0.0
2018-Jun-19 04:09N 29°37' W 095°01'0 0.0
2018-Jun-19 03:58N 29°37' W 095°01'0 0.0
2018-Jun-19 03:27N 29°37' W 095°01'0 0.0
2018-Jun-19 03:00N 29°37' W 095°01'0 0.1
2018-Jun-19 02:29N 29°37' W 095°02'0 0.0
2018-Jun-19 01:59N 29°37' W 095°02'0 0.0
2018-Jun-19 01:30N 29°37' W 095°02'0 0.0
2018-Jun-19 00:56N 29°37' W 095°02'0 0.0
2018-Jun-19 00:30N 29°37' W 095°02'0 0.0
2018-Jun-19 00:00N 29°37' W 095°02'0 0.0
2018-Jun-18 23:30N 29°37' W 095°02'0 0.0
2018-Jun-18 23:00N 29°37' W 095°02'0 0.0
2018-Jun-18 22:30N 29°37' W 095°02'0 0.0
2018-Jun-18 22:00N 29°37' W 095°02'0 0.0
2018-Jun-18 21:30N 29°37' W 095°02'0 0.0
2018-Jun-18 21:00N 29°37' W 095°02'0 0.0
2018-Jun-18 20:29N 29°37' W 095°02'0 0.0
2018-Jun-18 20:00N 29°37' W 095°02'0 0.0
2018-Jun-18 19:29N 29°37' W 095°02'0 0.0
2018-Jun-18 19:00N 29°37' W 095°02'0 0.0
2018-Jun-18 18:30N 29°37' W 095°02'0 0.0
2018-Jun-18 18:00N 29°37' W 095°02'0 0.0
2018-Jun-18 17:29N 29°37' W 095°02'0 0.0
2018-Jun-18 17:00N 29°37' W 095°02'0 0.0
2018-Jun-18 16:30N 29°37' W 095°02'0 0.0
2018-Jun-18 15:58N 29°37' W 095°02'1 3.2
2018-Jun-18 15:30N 29°37' W 094°60'2 4.1
2018-Jun-18 14:55N 29°39' W 094°58'3 6.9
2018-Jun-18 14:30N 29°41' W 094°59'2 0.1
2018-Jun-17 13:28N 29°42' W 095°01'3 6.3
2018-Jun-17 12:58N 29°40' W 094°59'3 6.1
2018-Jun-17 12:25N 29°37' W 094°57'2 6.0
2018-Jun-17 12:01N 29°37' W 095°00'1 2.1
2018-Jun-17 11:30N 29°37' W 095°02'0 0.0
2018-Jun-17 11:01N 29°37' W 095°02'0 0.0
2018-Jun-17 10:17N 29°37' W 095°02'0 0.0
2018-Jun-17 09:23N 29°37' W 095°02'0 0.0
2018-Jun-17 08:53N 29°37' W 095°02'0 0.0
2018-Jun-17 03:53N 29°37' W 095°02'0 0.0
2018-Jun-17 03:29N 29°37' W 095°02'0 0.0
2018-Jun-17 03:00N 29°37' W 095°02'0 0.0
2018-Jun-17 02:30N 29°37' W 095°02'0 0.0
2018-Jun-17 01:58N 29°37' W 095°02'0 0.0
2018-Jun-17 01:30N 29°37' W 095°02'0 0.0
2018-Jun-17 01:00N 29°37' W 095°02'1 2.5
2018-Jun-17 00:30N 29°37' W 095°00'2 4.6
2018-Jun-17 00:00N 29°38' W 094°58'4 7.2
2018-Jun-16 23:30N 29°41' W 094°59'  
2018-Jun-14 07:13N 29°47' W 095°04'0 0.6
2018-Jun-14 06:59N 29°47' W 095°04'0 0.0
2018-Jun-14 06:30N 29°47' W 095°04'1 2.0
2018-Jun-14 05:51N 29°46' W 095°05'2 5.2
2018-Jun-14 05:26N 29°44' W 095°03'3 5.1
2018-Jun-14 04:50N 29°42' W 095°01'2 5.6
2018-Jun-14 04:27N 29°41' W 094°59'3 6.1
2018-Jun-14 03:54N 29°38' W 094°58'2 4.1
2018-Jun-14 03:30N 29°37' W 094°59'2 3.6
2018-Jun-14 03:00N 29°37' W 095°01'0 0.5
2018-Jun-14 02:30N 29°37' W 095°01'0 0.0
2018-Jun-14 01:08N 29°37' W 095°02'0 0.3
2018-Jun-14 01:00N 29°37' W 095°01'0 0.3
2018-Jun-14 00:28N 29°37' W 095°02'  

Dump ship's entire track history